sensor_id;sensor_type;location;lat;lon;timestamp;P1;durP1;ratioP1;P2;durP2;ratioP2
28304;SDS011;15569;42.652;23.040;2023-02-11T00:00:03;33.30;;;15.15;;
28304;SDS011;15569;42.652;23.040;2023-02-11T00:02:31;33.35;;;16.58;;
28304;SDS011;15569;42.652;23.040;2023-02-11T00:04:57;34.92;;;14.90;;
28304;SDS011;15569;42.652;23.040;2023-02-11T00:07:22;34.40;;;15.45;;
28304;SDS011;15569;42.652;23.040;2023-02-11T00:09:48;40.55;;;15.95;;
28304;SDS011;15569;42.652;23.040;2023-02-11T00:12:13;37.10;;;15.73;;
28304;SDS011;15569;42.652;23.040;2023-02-11T00:14:40;32.90;;;16.27;;
28304;SDS011;15569;42.652;23.040;2023-02-11T00:17:05;31.02;;;14.45;;
28304;SDS011;15569;42.652;23.040;2023-02-11T00:19:31;32.40;;;14.50;;
28304;SDS011;15569;42.652;23.040;2023-02-11T00:21:56;34.60;;;15.80;;
28304;SDS011;15569;42.652;23.040;2023-02-11T00:24:21;39.38;;;17.45;;
28304;SDS011;15569;42.652;23.040;2023-02-11T00:26:47;37.00;;;16.05;;
28304;SDS011;15569;42.652;23.040;2023-02-11T00:29:12;28.42;;;14.52;;
28304;SDS011;15569;42.652;23.040;2023-02-11T00:31:37;36.85;;;15.90;;
28304;SDS011;15569;42.652;23.040;2023-02-11T00:34:03;31.25;;;15.07;;
28304;SDS011;15569;42.652;23.040;2023-02-11T00:36:28;27.10;;;14.02;;
28304;SDS011;15569;42.652;23.040;2023-02-11T00:38:55;34.40;;;14.85;;
28304;SDS011;15569;42.652;23.040;2023-02-11T00:41:21;36.78;;;16.70;;
28304;SDS011;15569;42.652;23.040;2023-02-11T00:43:47;29.80;;;14.52;;
28304;SDS011;15569;42.652;23.040;2023-02-11T00:46:13;34.47;;;15.13;;
28304;SDS011;15569;42.652;23.040;2023-02-11T00:48:39;31.52;;;14.82;;
28304;SDS011;15569;42.652;23.040;2023-02-11T00:51:05;31.02;;;14.07;;
28304;SDS011;15569;42.652;23.040;2023-02-11T00:53:31;31.58;;;15.18;;
28304;SDS011;15569;42.652;23.040;2023-02-11T00:55:57;33.90;;;15.63;;
28304;SDS011;15569;42.652;23.040;2023-02-11T00:58:22;37.42;;;16.15;;
28304;SDS011;15569;42.652;23.040;2023-02-11T01:00:48;33.20;;;16.08;;
28304;SDS011;15569;42.652;23.040;2023-02-11T01:03:13;31.20;;;15.10;;
28304;SDS011;15569;42.652;23.040;2023-02-11T01:05:39;42.15;;;16.65;;
28304;SDS011;15569;42.652;23.040;2023-02-11T01:08:05;33.90;;;16.05;;
28304;SDS011;15569;42.652;23.040;2023-02-11T01:10:31;33.45;;;16.10;;
28304;SDS011;15569;42.652;23.040;2023-02-11T01:12:57;39.92;;;18.38;;
28304;SDS011;15569;42.652;23.040;2023-02-11T01:15:22;39.90;;;17.77;;
28304;SDS011;15569;42.652;23.040;2023-02-11T01:17:48;39.38;;;17.65;;
28304;SDS011;15569;42.652;23.040;2023-02-11T01:20:15;60.38;;;24.48;;
28304;SDS011;15569;42.652;23.040;2023-02-11T01:22:42;61.88;;;25.17;;
28304;SDS011;15569;42.652;23.040;2023-02-11T01:25:08;69.93;;;27.42;;
28304;SDS011;15569;42.652;23.040;2023-02-11T01:27:33;58.22;;;25.75;;
28304;SDS011;15569;42.652;23.040;2023-02-11T01:29:59;42.63;;;18.83;;
28304;SDS011;15569;42.652;23.040;2023-02-11T01:32:25;44.72;;;18.13;;
28304;SDS011;15569;42.652;23.040;2023-02-11T01:34:50;35.88;;;15.90;;
28304;SDS011;15569;42.652;23.040;2023-02-11T01:37:16;37.15;;;17.45;;
28304;SDS011;15569;42.652;23.040;2023-02-11T01:39:41;36.55;;;16.15;;
28304;SDS011;15569;42.652;23.040;2023-02-11T01:42:06;33.33;;;15.68;;
28304;SDS011;15569;42.652;23.040;2023-02-11T01:44:39;32.58;;;14.60;;
28304;SDS011;15569;42.652;23.040;2023-02-11T01:47:05;31.17;;;15.30;;
28304;SDS011;15569;42.652;23.040;2023-02-11T01:49:35;34.67;;;15.95;;
28304;SDS011;15569;42.652;23.040;2023-02-11T01:52:13;27.85;;;13.18;;
28304;SDS011;15569;42.652;23.040;2023-02-11T01:54:46;35.67;;;14.48;;
28304;SDS011;15569;42.652;23.040;2023-02-11T01:57:48;30.33;;;14.90;;
28304;SDS011;15569;42.652;23.040;2023-02-11T02:00:29;33.75;;;15.35;;
28304;SDS011;15569;42.652;23.040;2023-02-11T02:03:16;29.75;;;15.18;;
28304;SDS011;15569;42.652;23.040;2023-02-11T02:05:54;30.52;;;14.45;;
28304;SDS011;15569;42.652;23.040;2023-02-11T02:08:39;30.60;;;13.20;;
28304;SDS011;15569;42.652;23.040;2023-02-11T02:11:06;32.70;;;13.40;;
28304;SDS011;15569;42.652;23.040;2023-02-11T02:13:33;31.90;;;15.15;;
28304;SDS011;15569;42.652;23.040;2023-02-11T02:16:33;34.33;;;14.55;;
28304;SDS011;15569;42.652;23.040;2023-02-11T02:25:17;28.85;;;13.93;;
28304;SDS011;15569;42.652;23.040;2023-02-11T02:27:54;38.38;;;17.38;;
28304;SDS011;15569;42.652;23.040;2023-02-11T02:38:56;42.88;;;19.90;;
28304;SDS011;15569;42.652;23.040;2023-02-11T02:41:27;40.05;;;17.77;;
28304;SDS011;15569;42.652;23.040;2023-02-11T02:43:55;38.53;;;18.15;;
28304;SDS011;15569;42.652;23.040;2023-02-11T02:46:26;29.02;;;15.10;;
28304;SDS011;15569;42.652;23.040;2023-02-11T02:48:54;31.52;;;15.02;;
28304;SDS011;15569;42.652;23.040;2023-02-11T02:56:54;39.95;;;18.05;;
28304;SDS011;15569;42.652;23.040;2023-02-11T02:59:40;53.05;;;23.08;;
28304;SDS011;15569;42.652;23.040;2023-02-11T03:05:28;84.50;;;41.78;;
28304;SDS011;15569;42.652;23.040;2023-02-11T03:10:43;88.82;;;35.63;;
28304;SDS011;15569;42.652;23.040;2023-02-11T03:13:10;83.75;;;38.85;;
28304;SDS011;15569;42.652;23.040;2023-02-11T03:15:39;107.40;;;42.95;;
28304;SDS011;15569;42.652;23.040;2023-02-11T03:18:08;100.10;;;42.10;;
28304;SDS011;15569;42.652;23.040;2023-02-11T03:23:13;109.45;;;45.45;;
28304;SDS011;15569;42.652;23.040;2023-02-11T03:25:50;108.05;;;44.92;;
28304;SDS011;15569;42.652;23.040;2023-02-11T03:31:50;107.22;;;46.03;;
28304;SDS011;15569;42.652;23.040;2023-02-11T03:37:01;111.65;;;43.20;;
28304;SDS011;15569;42.652;23.040;2023-02-11T03:39:35;120.05;;;47.80;;
28304;SDS011;15569;42.652;23.040;2023-02-11T03:42:05;105.63;;;43.35;;
28304;SDS011;15569;42.652;23.040;2023-02-11T03:44:33;111.85;;;45.10;;
28304;SDS011;15569;42.652;23.040;2023-02-11T03:47:06;110.45;;;43.70;;
28304;SDS011;15569;42.652;23.040;2023-02-11T03:49:34;103.90;;;41.78;;
28304;SDS011;15569;42.652;23.040;2023-02-11T03:52:03;103.28;;;44.45;;
28304;SDS011;15569;42.652;23.040;2023-02-11T03:54:30;110.38;;;43.17;;
28304;SDS011;15569;42.652;23.040;2023-02-11T03:56:57;91.40;;;41.30;;
28304;SDS011;15569;42.652;23.040;2023-02-11T03:59:24;90.85;;;40.15;;
28304;SDS011;15569;42.652;23.040;2023-02-11T04:01:50;99.90;;;41.88;;
28304;SDS011;15569;42.652;23.040;2023-02-11T04:04:15;101.45;;;41.92;;
28304;SDS011;15569;42.652;23.040;2023-02-11T04:06:41;98.10;;;40.10;;
28304;SDS011;15569;42.652;23.040;2023-02-11T04:09:07;96.07;;;40.05;;
28304;SDS011;15569;42.652;23.040;2023-02-11T04:11:33;94.40;;;38.75;;
28304;SDS011;15569;42.652;23.040;2023-02-11T04:13:58;86.93;;;37.00;;
28304;SDS011;15569;42.652;23.040;2023-02-11T04:16:24;96.13;;;38.85;;
28304;SDS011;15569;42.652;23.040;2023-02-11T04:18:49;85.15;;;38.50;;
28304;SDS011;15569;42.652;23.040;2023-02-11T04:21:14;85.03;;;34.63;;
28304;SDS011;15569;42.652;23.040;2023-02-11T04:23:40;94.55;;;37.70;;
28304;SDS011;15569;42.652;23.040;2023-02-11T04:26:05;106.90;;;41.58;;
28304;SDS011;15569;42.652;23.040;2023-02-11T04:28:31;89.90;;;38.90;;
28304;SDS011;15569;42.652;23.040;2023-02-11T04:30:56;116.45;;;47.80;;
28304;SDS011;15569;42.652;23.040;2023-02-11T04:33:22;92.43;;;40.78;;
28304;SDS011;15569;42.652;23.040;2023-02-11T04:35:48;92.93;;;40.35;;
28304;SDS011;15569;42.652;23.040;2023-02-11T04:38:13;100.60;;;39.88;;
28304;SDS011;15569;42.652;23.040;2023-02-11T04:40:39;116.43;;;43.60;;
28304;SDS011;15569;42.652;23.040;2023-02-11T04:43:05;103.40;;;42.70;;
28304;SDS011;15569;42.652;23.040;2023-02-11T04:45:30;102.18;;;41.90;;
28304;SDS011;15569;42.652;23.040;2023-02-11T04:47:56;101.93;;;41.08;;
28304;SDS011;15569;42.652;23.040;2023-02-11T04:50:21;115.53;;;41.63;;
28304;SDS011;15569;42.652;23.040;2023-02-11T04:52:46;105.97;;;42.28;;
28304;SDS011;15569;42.652;23.040;2023-02-11T04:55:12;112.57;;;47.05;;
28304;SDS011;15569;42.652;23.040;2023-02-11T04:57:38;109.28;;;43.53;;
28304;SDS011;15569;42.652;23.040;2023-02-11T05:00:03;98.95;;;40.58;;
28304;SDS011;15569;42.652;23.040;2023-02-11T05:02:29;103.97;;;43.00;;
28304;SDS011;15569;42.652;23.040;2023-02-11T05:04:55;109.78;;;43.22;;
28304;SDS011;15569;42.652;23.040;2023-02-11T05:07:20;131.23;;;46.97;;
28304;SDS011;15569;42.652;23.040;2023-02-11T05:09:45;158.00;;;58.42;;
28304;SDS011;15569;42.652;23.040;2023-02-11T05:12:11;113.38;;;47.97;;
28304;SDS011;15569;42.652;23.040;2023-02-11T05:14:36;114.43;;;46.70;;
28304;SDS011;15569;42.652;23.040;2023-02-11T05:17:02;103.53;;;45.20;;
28304;SDS011;15569;42.652;23.040;2023-02-11T05:19:27;115.97;;;45.42;;
28304;SDS011;15569;42.652;23.040;2023-02-11T05:21:53;128.73;;;48.03;;
28304;SDS011;15569;42.652;23.040;2023-02-11T05:24:18;103.05;;;43.53;;
28304;SDS011;15569;42.652;23.040;2023-02-11T05:26:44;111.35;;;42.38;;
28304;SDS011;15569;42.652;23.040;2023-02-11T05:29:09;110.53;;;43.10;;
28304;SDS011;15569;42.652;23.040;2023-02-11T05:31:34;138.18;;;50.03;;
28304;SDS011;15569;42.652;23.040;2023-02-11T05:34:00;114.13;;;45.97;;
28304;SDS011;15569;42.652;23.040;2023-02-11T05:36:27;133.13;;;47.88;;
28304;SDS011;15569;42.652;23.040;2023-02-11T05:38:53;121.93;;;50.05;;
28304;SDS011;15569;42.652;23.040;2023-02-11T05:41:19;141.85;;;53.85;;
28304;SDS011;15569;42.652;23.040;2023-02-11T05:43:46;131.48;;;48.38;;
28304;SDS011;15569;42.652;23.040;2023-02-11T05:46:13;128.52;;;51.83;;
28304;SDS011;15569;42.652;23.040;2023-02-11T05:48:39;115.35;;;50.30;;
28304;SDS011;15569;42.652;23.040;2023-02-11T05:51:04;115.07;;;47.75;;
28304;SDS011;15569;42.652;23.040;2023-02-11T05:53:29;136.68;;;47.30;;
28304;SDS011;15569;42.652;23.040;2023-02-11T05:55:55;110.10;;;44.67;;
28304;SDS011;15569;42.652;23.040;2023-02-11T05:58:21;138.77;;;51.78;;
28304;SDS011;15569;42.652;23.040;2023-02-11T06:00:46;111.70;;;45.33;;
28304;SDS011;15569;42.652;23.040;2023-02-11T06:03:12;147.00;;;58.70;;
28304;SDS011;15569;42.652;23.040;2023-02-11T06:05:37;122.30;;;50.33;;
28304;SDS011;15569;42.652;23.040;2023-02-11T06:08:03;123.80;;;47.78;;
28304;SDS011;15569;42.652;23.040;2023-02-11T06:10:28;127.13;;;45.97;;
28304;SDS011;15569;42.652;23.040;2023-02-11T06:12:53;118.57;;;48.13;;
28304;SDS011;15569;42.652;23.040;2023-02-11T06:15:19;115.35;;;43.83;;
28304;SDS011;15569;42.652;23.040;2023-02-11T06:17:44;118.97;;;49.53;;
28304;SDS011;15569;42.652;23.040;2023-02-11T06:20:10;133.65;;;49.28;;
28304;SDS011;15569;42.652;23.040;2023-02-11T06:22:36;113.47;;;47.15;;
28304;SDS011;15569;42.652;23.040;2023-02-11T06:25:02;147.82;;;56.72;;
28304;SDS011;15569;42.652;23.040;2023-02-11T06:27:28;141.52;;;53.22;;
28304;SDS011;15569;42.652;23.040;2023-02-11T06:29:53;121.10;;;47.85;;
28304;SDS011;15569;42.652;23.040;2023-02-11T06:32:19;116.32;;;45.63;;
28304;SDS011;15569;42.652;23.040;2023-02-11T06:34:44;109.05;;;44.47;;
28304;SDS011;15569;42.652;23.040;2023-02-11T06:37:10;122.13;;;49.25;;
28304;SDS011;15569;42.652;23.040;2023-02-11T06:39:35;125.53;;;49.17;;
28304;SDS011;15569;42.652;23.040;2023-02-11T06:42:01;116.75;;;48.50;;
28304;SDS011;15569;42.652;23.040;2023-02-11T06:44:26;104.88;;;45.25;;
28304;SDS011;15569;42.652;23.040;2023-02-11T06:46:52;223.02;;;69.45;;
28304;SDS011;15569;42.652;23.040;2023-02-11T06:49:17;168.50;;;60.67;;
28304;SDS011;15569;42.652;23.040;2023-02-11T06:51:43;187.80;;;64.93;;
28304;SDS011;15569;42.652;23.040;2023-02-11T06:54:09;73.35;;;33.40;;
28304;SDS011;15569;42.652;23.040;2023-02-11T06:56:37;97.95;;;37.85;;
28304;SDS011;15569;42.652;23.040;2023-02-11T06:59:04;169.35;;;51.83;;
28304;SDS011;15569;42.652;23.040;2023-02-11T07:01:29;113.57;;;38.40;;
28304;SDS011;15569;42.652;23.040;2023-02-11T07:03:55;71.53;;;26.42;;
28304;SDS011;15569;42.652;23.040;2023-02-11T07:06:22;87.68;;;31.05;;
28304;SDS011;15569;42.652;23.040;2023-02-11T07:08:51;195.38;;;55.47;;
28304;SDS011;15569;42.652;23.040;2023-02-11T07:11:21;125.32;;;40.50;;
28304;SDS011;15569;42.652;23.040;2023-02-11T07:13:49;89.40;;;31.88;;
28304;SDS011;15569;42.652;23.040;2023-02-11T07:16:15;120.03;;;38.75;;
28304;SDS011;15569;42.652;23.040;2023-02-11T07:18:42;224.18;;;63.13;;
28304;SDS011;15569;42.652;23.040;2023-02-11T07:21:08;81.53;;;29.23;;
28304;SDS011;15569;42.652;23.040;2023-02-11T07:23:36;35.42;;;17.48;;
28304;SDS011;15569;42.652;23.040;2023-02-11T07:26:06;108.80;;;32.33;;
28304;SDS011;15569;42.652;23.040;2023-02-11T07:28:32;62.70;;;23.70;;
28304;SDS011;15569;42.652;23.040;2023-02-11T07:31:04;52.85;;;20.40;;
28304;SDS011;15569;42.652;23.040;2023-02-11T07:33:31;158.27;;;47.17;;
28304;SDS011;15569;42.652;23.040;2023-02-11T07:35:58;163.07;;;45.88;;
28304;SDS011;15569;42.652;23.040;2023-02-11T07:38:24;72.45;;;26.95;;
28304;SDS011;15569;42.652;23.040;2023-02-11T07:40:50;141.98;;;41.50;;
28304;SDS011;15569;42.652;23.040;2023-02-11T07:43:16;79.03;;;25.73;;
28304;SDS011;15569;42.652;23.040;2023-02-11T07:45:41;59.13;;;20.33;;
28304;SDS011;15569;42.652;23.040;2023-02-11T07:48:06;106.22;;;33.53;;
28304;SDS011;15569;42.652;23.040;2023-02-11T07:50:32;371.17;;;89.97;;
28304;SDS011;15569;42.652;23.040;2023-02-11T07:52:57;369.52;;;89.53;;
28304;SDS011;15569;42.652;23.040;2023-02-11T07:55:22;190.40;;;47.83;;
28304;SDS011;15569;42.652;23.040;2023-02-11T07:57:48;160.80;;;38.25;;
28304;SDS011;15569;42.652;23.040;2023-02-11T08:00:14;180.93;;;47.47;;
28304;SDS011;15569;42.652;23.040;2023-02-11T08:02:41;45.60;;;16.83;;
28304;SDS011;15569;42.652;23.040;2023-02-11T08:05:06;81.05;;;23.27;;
28304;SDS011;15569;42.652;23.040;2023-02-11T08:07:32;241.88;;;54.05;;
28304;SDS011;15569;42.652;23.040;2023-02-11T08:09:57;116.07;;;34.47;;
28304;SDS011;15569;42.652;23.040;2023-02-11T08:12:23;98.47;;;29.70;;
28304;SDS011;15569;42.652;23.040;2023-02-11T08:14:48;128.45;;;35.13;;
28304;SDS011;15569;42.652;23.040;2023-02-11T08:17:14;100.97;;;27.83;;
28304;SDS011;15569;42.652;23.040;2023-02-11T08:19:39;229.95;;;53.47;;
28304;SDS011;15569;42.652;23.040;2023-02-11T08:22:04;163.57;;;44.63;;
28304;SDS011;15569;42.652;23.040;2023-02-11T08:24:30;110.35;;;30.60;;
28304;SDS011;15569;42.652;23.040;2023-02-11T08:26:55;246.32;;;52.13;;
28304;SDS011;15569;42.652;23.040;2023-02-11T08:29:21;153.02;;;38.78;;
28304;SDS011;15569;42.652;23.040;2023-02-11T08:31:46;385.45;;;85.22;;
28304;SDS011;15569;42.652;23.040;2023-02-11T08:34:13;86.35;;;26.48;;
28304;SDS011;15569;42.652;23.040;2023-02-11T08:36:42;125.72;;;33.17;;
28304;SDS011;15569;42.652;23.040;2023-02-11T08:39:14;62.45;;;18.15;;
28304;SDS011;15569;42.652;23.040;2023-02-11T08:41:41;58.58;;;19.50;;
28304;SDS011;15569;42.652;23.040;2023-02-11T08:44:07;304.50;;;65.65;;
28304;SDS011;15569;42.652;23.040;2023-02-11T08:46:32;48.53;;;16.80;;
28304;SDS011;15569;42.652;23.040;2023-02-11T08:48:57;128.80;;;29.98;;
28304;SDS011;15569;42.652;23.040;2023-02-11T08:51:24;161.20;;;36.25;;
28304;SDS011;15569;42.652;23.040;2023-02-11T08:53:52;114.85;;;27.40;;
28304;SDS011;15569;42.652;23.040;2023-02-11T08:56:18;39.75;;;16.40;;
28304;SDS011;15569;42.652;23.040;2023-02-11T08:58:45;126.78;;;28.20;;
28304;SDS011;15569;42.652;23.040;2023-02-11T09:01:12;96.55;;;27.98;;
28304;SDS011;15569;42.652;23.040;2023-02-11T09:03:39;174.27;;;34.55;;
28304;SDS011;15569;42.652;23.040;2023-02-11T09:06:05;91.28;;;20.33;;
28304;SDS011;15569;42.652;23.040;2023-02-11T09:08:33;236.77;;;51.15;;
28304;SDS011;15569;42.652;23.040;2023-02-11T09:11:00;42.78;;;15.38;;
28304;SDS011;15569;42.652;23.040;2023-02-11T09:13:26;49.80;;;19.08;;
28304;SDS011;15569;42.652;23.040;2023-02-11T09:15:51;106.68;;;26.17;;
28304;SDS011;15569;42.652;23.040;2023-02-11T09:18:17;81.57;;;22.42;;
28304;SDS011;15569;42.652;23.040;2023-02-11T09:20:42;24.52;;;13.32;;
28304;SDS011;15569;42.652;23.040;2023-02-11T09:23:08;29.98;;;10.38;;
28304;SDS011;15569;42.652;23.040;2023-02-11T09:25:34;79.30;;;21.90;;
28304;SDS011;15569;42.652;23.040;2023-02-11T09:27:59;33.97;;;11.30;;
28304;SDS011;15569;42.652;23.040;2023-02-11T09:30:25;141.10;;;41.70;;
28304;SDS011;15569;42.652;23.040;2023-02-11T09:32:50;97.00;;;27.23;;
28304;SDS011;15569;42.652;23.040;2023-02-11T09:35:16;183.93;;;37.55;;
28304;SDS011;15569;42.652;23.040;2023-02-11T09:37:41;51.03;;;17.33;;
28304;SDS011;15569;42.652;23.040;2023-02-11T09:40:07;110.35;;;24.88;;
28304;SDS011;15569;42.652;23.040;2023-02-11T09:42:44;31.85;;;12.77;;
28304;SDS011;15569;42.652;23.040;2023-02-11T09:45:32;37.93;;;13.00;;
28304;SDS011;15569;42.652;23.040;2023-02-11T09:47:58;162.95;;;35.15;;
28304;SDS011;15569;42.652;23.040;2023-02-11T09:50:40;36.05;;;14.30;;
28304;SDS011;15569;42.652;23.040;2023-02-11T09:53:13;191.43;;;35.30;;
28304;SDS011;15569;42.652;23.040;2023-02-11T09:55:40;98.70;;;27.08;;
28304;SDS011;15569;42.652;23.040;2023-02-11T09:58:14;31.25;;;15.82;;
28304;SDS011;15569;42.652;23.040;2023-02-11T10:00:43;27.50;;;14.38;;
28304;SDS011;15569;42.652;23.040;2023-02-11T10:06:28;34.42;;;12.32;;
28304;SDS011;15569;42.652;23.040;2023-02-11T10:16:44;36.28;;;15.35;;
28304;SDS011;15569;42.652;23.040;2023-02-11T10:21:59;24.00;;;10.00;;
28304;SDS011;15569;42.652;23.040;2023-02-11T10:24:50;30.67;;;12.48;;
28304;SDS011;15569;42.652;23.040;2023-02-11T10:27:19;38.97;;;14.60;;
28304;SDS011;15569;42.652;23.040;2023-02-11T10:29:49;37.47;;;14.32;;
28304;SDS011;15569;42.652;23.040;2023-02-11T10:35:03;24.25;;;12.32;;
28304;SDS011;15569;42.652;23.040;2023-02-11T10:37:42;14.10;;;7.28;;
28304;SDS011;15569;42.652;23.040;2023-02-11T10:40:14;18.33;;;9.32;;
28304;SDS011;15569;42.652;23.040;2023-02-11T10:42:43;46.47;;;19.42;;
28304;SDS011;15569;42.652;23.040;2023-02-11T10:45:17;65.25;;;27.25;;
28304;SDS011;15569;42.652;23.040;2023-02-11T10:47:48;22.50;;;11.45;;
28304;SDS011;15569;42.652;23.040;2023-02-11T10:50:23;39.67;;;22.27;;
28304;SDS011;15569;42.652;23.040;2023-02-11T10:52:51;31.70;;;15.55;;
28304;SDS011;15569;42.652;23.040;2023-02-11T10:55:18;19.10;;;6.70;;
28304;SDS011;15569;42.652;23.040;2023-02-11T10:57:55;25.80;;;10.00;;
28304;SDS011;15569;42.652;23.040;2023-02-11T11:00:36;24.45;;;11.65;;
28304;SDS011;15569;42.652;23.040;2023-02-11T11:03:13;17.73;;;7.78;;
28304;SDS011;15569;42.652;23.040;2023-02-11T11:08:19;23.55;;;9.48;;
28304;SDS011;15569;42.652;23.040;2023-02-11T11:10:47;15.73;;;7.95;;
28304;SDS011;15569;42.652;23.040;2023-02-11T11:13:34;22.58;;;10.02;;
28304;SDS011;15569;42.652;23.040;2023-02-11T11:16:13;20.25;;;9.85;;
28304;SDS011;15569;42.652;23.040;2023-02-11T11:18:42;26.45;;;11.10;;
28304;SDS011;15569;42.652;23.040;2023-02-11T11:23:40;17.88;;;9.95;;
28304;SDS011;15569;42.652;23.040;2023-02-11T11:26:13;20.85;;;9.55;;
28304;SDS011;15569;42.652;23.040;2023-02-11T11:33:42;17.98;;;8.40;;
28304;SDS011;15569;42.652;23.040;2023-02-11T11:36:11;21.67;;;9.48;;
28304;SDS011;15569;42.652;23.040;2023-02-11T11:38:44;25.88;;;10.55;;
28304;SDS011;15569;42.652;23.040;2023-02-11T11:41:25;25.40;;;11.65;;
28304;SDS011;15569;42.652;23.040;2023-02-11T11:43:53;22.38;;;9.68;;
28304;SDS011;15569;42.652;23.040;2023-02-11T11:46:29;19.23;;;9.45;;
28304;SDS011;15569;42.652;23.040;2023-02-11T11:49:06;23.60;;;11.70;;
28304;SDS011;15569;42.652;23.040;2023-02-11T11:51:42;15.55;;;9.38;;
28304;SDS011;15569;42.652;23.040;2023-02-11T11:54:12;15.20;;;8.50;;
28304;SDS011;15569;42.652;23.040;2023-02-11T11:56:46;15.67;;;8.70;;
28304;SDS011;15569;42.652;23.040;2023-02-11T11:59:17;18.15;;;7.53;;
28304;SDS011;15569;42.652;23.040;2023-02-11T12:13:07;13.45;;;7.65;;
28304;SDS011;15569;42.652;23.040;2023-02-11T12:29:01;15.98;;;7.60;;
28304;SDS011;15569;42.652;23.040;2023-02-11T12:42:46;13.82;;;7.60;;
28304;SDS011;15569;42.652;23.040;2023-02-11T12:45:50;20.38;;;8.57;;
28304;SDS011;15569;42.652;23.040;2023-02-11T12:59:16;14.10;;;7.95;;
28304;SDS011;15569;42.652;23.040;2023-02-11T13:01:53;16.85;;;8.55;;
28304;SDS011;15569;42.652;23.040;2023-02-11T13:04:26;15.52;;;7.75;;
28304;SDS011;15569;42.652;23.040;2023-02-11T13:06:59;19.42;;;7.57;;
28304;SDS011;15569;42.652;23.040;2023-02-11T13:09:37;13.03;;;8.10;;
28304;SDS011;15569;42.652;23.040;2023-02-11T13:12:06;12.95;;;7.80;;
28304;SDS011;15569;42.652;23.040;2023-02-11T13:14:51;16.20;;;8.88;;
28304;SDS011;15569;42.652;23.040;2023-02-11T13:20:00;18.70;;;8.82;;
28304;SDS011;15569;42.652;23.040;2023-02-11T13:22:38;15.50;;;7.90;;
28304;SDS011;15569;42.652;23.040;2023-02-11T13:30:39;12.32;;;7.05;;
28304;SDS011;15569;42.652;23.040;2023-02-11T13:35:40;16.17;;;9.18;;
28304;SDS011;15569;42.652;23.040;2023-02-11T13:38:22;15.23;;;8.45;;
28304;SDS011;15569;42.652;23.040;2023-02-11T13:41:02;17.83;;;8.80;;
28304;SDS011;15569;42.652;23.040;2023-02-11T13:43:30;21.00;;;9.52;;
28304;SDS011;15569;42.652;23.040;2023-02-11T13:45:58;21.92;;;10.35;;
28304;SDS011;15569;42.652;23.040;2023-02-11T13:48:28;21.15;;;9.32;;
28304;SDS011;15569;42.652;23.040;2023-02-11T13:50:56;18.00;;;9.88;;
28304;SDS011;15569;42.652;23.040;2023-02-11T13:53:25;15.43;;;8.82;;
28304;SDS011;15569;42.652;23.040;2023-02-11T13:56:22;14.13;;;8.98;;
28304;SDS011;15569;42.652;23.040;2023-02-11T13:58:48;13.65;;;8.73;;
28304;SDS011;15569;42.652;23.040;2023-02-11T14:01:37;14.93;;;9.13;;
28304;SDS011;15569;42.652;23.040;2023-02-11T14:04:30;13.77;;;8.35;;
28304;SDS011;15569;42.652;23.040;2023-02-11T14:07:28;16.00;;;8.20;;
28304;SDS011;15569;42.652;23.040;2023-02-11T14:10:48;14.40;;;8.43;;
28304;SDS011;15569;42.652;23.040;2023-02-11T14:13:17;12.82;;;8.32;;
28304;SDS011;15569;42.652;23.040;2023-02-11T14:15:44;15.85;;;9.63;;
28304;SDS011;15569;42.652;23.040;2023-02-11T14:21:08;12.48;;;8.95;;
28304;SDS011;15569;42.652;23.040;2023-02-11T14:23:37;21.08;;;13.05;;
28304;SDS011;15569;42.652;23.040;2023-02-11T14:26:08;14.00;;;8.57;;
28304;SDS011;15569;42.652;23.040;2023-02-11T14:28:37;14.68;;;8.00;;
28304;SDS011;15569;42.652;23.040;2023-02-11T14:31:09;13.55;;;8.70;;
28304;SDS011;15569;42.652;23.040;2023-02-11T14:36:55;20.30;;;9.77;;
28304;SDS011;15569;42.652;23.040;2023-02-11T14:39:33;15.68;;;9.52;;
28304;SDS011;15569;42.652;23.040;2023-02-11T14:42:06;22.65;;;10.52;;
28304;SDS011;15569;42.652;23.040;2023-02-11T14:44:42;16.77;;;10.80;;
28304;SDS011;15569;42.652;23.040;2023-02-11T14:47:10;18.80;;;10.43;;
28304;SDS011;15569;42.652;23.040;2023-02-11T14:49:43;20.77;;;10.55;;
28304;SDS011;15569;42.652;23.040;2023-02-11T14:54:48;14.23;;;8.90;;
28304;SDS011;15569;42.652;23.040;2023-02-11T14:57:16;16.15;;;9.60;;
28304;SDS011;15569;42.652;23.040;2023-02-11T14:59:54;16.88;;;8.40;;
28304;SDS011;15569;42.652;23.040;2023-02-11T15:02:24;20.08;;;10.65;;
28304;SDS011;15569;42.652;23.040;2023-02-11T15:04:54;17.80;;;9.90;;
28304;SDS011;15569;42.652;23.040;2023-02-11T15:07:41;16.83;;;8.98;;
28304;SDS011;15569;42.652;23.040;2023-02-11T15:10:13;20.90;;;11.85;;
28304;SDS011;15569;42.652;23.040;2023-02-11T15:12:43;17.20;;;9.10;;
28304;SDS011;15569;42.652;23.040;2023-02-11T15:15:11;15.73;;;9.60;;
28304;SDS011;15569;42.652;23.040;2023-02-11T15:17:38;15.35;;;9.40;;
28304;SDS011;15569;42.652;23.040;2023-02-11T15:20:04;22.20;;;10.13;;
28304;SDS011;15569;42.652;23.040;2023-02-11T15:22:33;22.60;;;10.50;;
28304;SDS011;15569;42.652;23.040;2023-02-11T15:25:02;24.38;;;11.50;;
28304;SDS011;15569;42.652;23.040;2023-02-11T15:27:36;22.52;;;10.50;;
28304;SDS011;15569;42.652;23.040;2023-02-11T15:30:16;20.98;;;11.35;;
28304;SDS011;15569;42.652;23.040;2023-02-11T15:32:55;20.67;;;10.90;;
28304;SDS011;15569;42.652;23.040;2023-02-11T15:35:28;32.67;;;14.05;;
28304;SDS011;15569;42.652;23.040;2023-02-11T15:37:57;18.65;;;11.30;;
28304;SDS011;15569;42.652;23.040;2023-02-11T15:40:24;29.45;;;14.85;;
28304;SDS011;15569;42.652;23.040;2023-02-11T15:42:53;22.98;;;12.65;;
28304;SDS011;15569;42.652;23.040;2023-02-11T15:45:30;23.15;;;11.45;;
28304;SDS011;15569;42.652;23.040;2023-02-11T15:48:01;20.58;;;12.63;;
28304;SDS011;15569;42.652;23.040;2023-02-11T15:50:41;23.52;;;11.73;;
28304;SDS011;15569;42.652;23.040;2023-02-11T15:55:53;53.00;;;17.27;;
28304;SDS011;15569;42.652;23.040;2023-02-11T15:58:37;96.30;;;31.20;;
28304;SDS011;15569;42.652;23.040;2023-02-11T16:01:05;90.63;;;32.10;;
28304;SDS011;15569;42.652;23.040;2023-02-11T16:03:32;37.00;;;18.75;;
28304;SDS011;15569;42.652;23.040;2023-02-11T16:06:14;29.95;;;14.77;;
28304;SDS011;15569;42.652;23.040;2023-02-11T16:08:39;30.02;;;16.08;;
28304;SDS011;15569;42.652;23.040;2023-02-11T16:11:19;36.90;;;17.73;;
28304;SDS011;15569;42.652;23.040;2023-02-11T16:13:50;38.28;;;17.60;;
28304;SDS011;15569;42.652;23.040;2023-02-11T16:16:19;38.13;;;17.27;;
28304;SDS011;15569;42.652;23.040;2023-02-11T16:18:51;36.42;;;13.10;;
28304;SDS011;15569;42.652;23.040;2023-02-11T16:21:27;27.90;;;12.55;;
28304;SDS011;15569;42.652;23.040;2023-02-11T16:24:03;36.00;;;16.40;;
28304;SDS011;15569;42.652;23.040;2023-02-11T16:29:06;46.38;;;19.92;;
28304;SDS011;15569;42.652;23.040;2023-02-11T16:40:13;47.28;;;24.35;;